| time (UTC) | temp C | wind direction | speed KPH | gust KPH | rain 1hr cm | rain 24hr cm | rain mn cm | humidity % | barometer mb |
| 20260507180044 | 11 | 38 | 3.2 | 20.9 | 0.28 | 3.58 | 3.58 | 94 | 1010.0 |
| 20260507174549 | 11 | 78 | 4.8 | 16.1 | 0.28 | 3.56 | 3.56 | 94 | 1010.3 |
| 20260507173054 | 11 | 254 | 6.4 | 17.7 | 0.23 | 3.48 | 3.48 | 94 | 1010.9 |
| 20260507171604 | 11 | 5 | 3.2 | 12.9 | 0.20 | 3.38 | 3.38 | 94 | 1011.1 |
| 20260507170045 | 11 | 79 | 6.4 | 14.5 | 0.33 | 3.30 | 3.30 | 94 | 1011.1 |
| 20260507164600 | 11 | 51 | 4.8 | 16.1 | 0.51 | 3.28 | 3.28 | 94 | 1011.1 |
| 20260507163045 | 12 | 0 | 1.6 | 12.9 | 0.74 | 3.25 | 3.25 | 94 | 1010.9 |
| 20260507161545 | 12 | 28 | 6.4 | 17.7 | 0.91 | 3.17 | 3.17 | 94 | 1010.5 |
| 20260507160049 | 12 | 15 | 9.7 | 19.3 | 0.97 | 2.95 | 2.95 | 95 | 1011.1 |
| 20260507154546 | 12 | 24 | 3.2 | 16.1 | 1.09 | 2.77 | 2.77 | 95 | 1010.6 |
| 20260507153048 | 12 | 249 | 6.4 | 22.5 | 0.89 | 2.51 | 2.51 | 94 | 1010.8 |
| 20260507151542 | 12 | 323 | 3.2 | 16.1 | 0.66 | 2.24 | 2.24 | 94 | 1011.0 |
| 20260507150045 | 13 | 331 | 6.4 | 22.5 | 0.46 | 2.01 | 2.01 | 94 | 1011.2 |
| 20260507144544 | 13 | 340 | 3.2 | 25.7 | 0.15 | 1.68 | 1.68 | 94 | 1011.1 |
| 20260507143046 | 13 | 338 | 11.3 | 25.7 | 0.13 | 1.63 | 1.63 | 93 | 1010.8 |
| 20260507141548 | 14 | 337 | 3.2 | 17.7 | 0.10 | 1.57 | 1.57 | 94 | 1010.8 |
| 20260507140047 | 15 | 42 | 6.4 | 17.7 | 0.10 | 1.55 | 1.55 | 95 | 1010.5 |
| 20260507134553 | 15 | 335 | 6.4 | 14.5 | 0.18 | 1.52 | 1.52 | 95 | 1010.5 |
| 20260507133046 | 15 | 352 | 3.2 | 12.9 | 0.18 | 1.47 | 1.47 | 95 | 1010.4 |
| 20260507131544 | 15 | 32 | 4.8 | 14.5 | 0.18 | 1.47 | 1.47 | 94 | 1010.3 |
| 20260507130056 | 15 | 57 | 6.4 | 17.7 | 0.28 | 1.45 | 1.45 | 94 | 1010.6 |
| 20260507124544 | 15 | 228 | 4.8 | 16.1 | 0.33 | 1.32 | 1.32 | 94 | 1010.8 |
| 20260507123046 | 15 | 17 | 6.4 | 20.9 | 0.46 | 1.32 | 1.32 | 94 | 1010.7 |
| 20260507121545 | 15 | 251 | 6.4 | 16.1 | 0.66 | 1.30 | 1.30 | 93 | 1010.8 |
| 20260507120043 | 16 | 300 | 8.0 | 29.0 | 0.81 | 1.17 | 1.17 | 92 | 1010.7 |
| 20260507114542 | 18 | 0 | 1.6 | 6.4 | 0.69 | 1.02 | 1.02 | 94 | 1010.3 |
| 20260507113040 | 18 | 269 | 3.2 | 9.7 | 0.58 | 0.84 | 0.84 | 94 | 1010.4 |
| 20260507111545 | 18 | 262 | 3.2 | 9.7 | 0.53 | 0.64 | 0.64 | 93 | 1010.3 |
| 20260507110059 | 18 | 278 | 1.6 | 6.4 | 0.36 | 0.36 | 0.36 | 93 | 1010.1 |
| 20260507104545 | 18 | 257 | 4.8 | 9.7 | 0.33 | 0.33 | 0.33 | 93 | 1010.1 |
| 20260507103041 | 18 | 257 | 1.6 | 12.9 | 0.25 | 0.25 | 0.25 | 92 | 1009.9 |
| 20260507101549 | 19 | 264 | 8.0 | 14.5 | 0.08 | 0.08 | 0.08 | 90 | 1010.0 |
| 20260507100048 | 19 | 261 | 3.2 | 9.7 | 0.00 | 0.00 | 0.00 | 88 | 1009.4 |
| 20260507094545 | 20 | 230 | 3.2 | 14.5 | 0.00 | 0.00 | 0.00 | 87 | 1009.2 |
| 20260507093047 | 20 | 197 | 3.2 | 9.7 | 0.00 | 0.00 | 0.00 | 87 | 1009.0 |
| 20260507091555 | 20 | 214 | 3.2 | 14.5 | 0.00 | 0.00 | 0.00 | 86 | 1009.0 |
| 20260507090046 | 20 | 177 | 4.8 | 14.5 | 0.00 | 0.00 | 0.00 | 86 | 1009.4 |
| 20260507084543 | 20 | 191 | 3.2 | 14.5 | 0.00 | 0.00 | 0.00 | 85 | 1009.5 |
| 20260507083045 | 20 | 213 | 4.8 | 11.3 | 0.00 | 0.00 | 0.00 | 85 | 1009.8 |
| 20260507081545 | 20 | 192 | 4.8 | 11.3 | 0.00 | 0.00 | 0.00 | 84 | 1009.8 |
| 20260507080044 | 20 | 196 | 3.2 | 9.7 | 0.00 | 0.00 | 0.00 | 83 | 1009.9 |
| 20260507074545 | 20 | 173 | 3.2 | 14.5 | 0.00 | 0.00 | 0.00 | 83 | 1010.2 |
| 20260507073048 | 20 | 0 | 3.2 | 11.3 | 0.00 | 0.00 | 0.00 | 83 | 1010.0 |
| 20260507071548 | 20 | 211 | 3.2 | 11.3 | 0.00 | 0.00 | 0.00 | 84 | 1010.1 |
| 20260507070057 | 20 | 143 | 3.2 | 11.3 | 0.00 | 0.00 | 0.00 | 85 | 1009.8 |
| 20260507064544 | 20 | 115 | 4.8 | 11.3 | 0.00 | 0.00 | 0.00 | 84 | 1009.6 |
| 20260507063043 | 20 | 0 | 4.8 | 12.9 | 0.00 | 0.00 | 0.00 | 83 | 1009.8 |
| 20260507061541 | 20 | 108 | 3.2 | 9.7 | 0.00 | 0.00 | 0.00 | 82 | 1010.2 |
| 20260507060100 | 20 | 215 | 3.2 | 9.7 | 0.00 | 0.00 | 0.00 | 82 | 1010.8 |
| 20260507054552 | 21 | 167 | 3.2 | 9.7 | 0.00 | 0.00 | 0.00 | 80 | 1010.8 |
| 20260507053050 | 21 | 0 | 1.6 | 9.7 | 0.00 | 0.00 | 0.00 | 78 | 1010.9 |
| 20260507051545 | 21 | 204 | 4.8 | 14.5 | 0.00 | 0.00 | 0.00 | 77 | 1011.0 |
| 20260507050044 | 22 | 199 | 3.2 | 11.3 | 0.00 | 0.00 | 0.00 | 75 | 1010.8 |
| 20260507044541 | 22 | 194 | 4.8 | 11.3 | 0.00 | 0.00 | 0.00 | 73 | 1010.7 |
| 20260507043046 | 22 | 186 | 4.8 | 12.9 | 0.00 | 0.00 | 0.00 | 74 | 1010.8 |
| 20260507041547 | 22 | 153 | 3.2 | 9.7 | 0.00 | 0.00 | 0.00 | 74 | 1011.0 |
| 20260507040044 | 22 | 160 | 1.6 | 8.0 | 0.00 | 0.00 | 0.00 | 75 | 1010.8 |
| 20260507034554 | 22 | 0 | 1.6 | 6.4 | 0.00 | 0.00 | 0.00 | 74 | 1010.3 |
| 20260507033048 | 22 | 142 | 3.2 | 8.0 | 0.00 | 0.00 | 0.00 | 74 | 1010.5 |
| 20260507031543 | 22 | 153 | 1.6 | 8.0 | 0.00 | 0.00 | 0.00 | 74 | 1010.4 |
| 20260507030045 | 22 | 158 | 0.0 | 4.8 | 0.00 | 0.00 | 0.00 | 73 | 1010.6 |
| 20260507024552 | 22 | 158 | 0.0 | 4.8 | 0.00 | 0.00 | 0.00 | 71 | 1010.8 |
| 20260507023042 | 23 | 159 | 3.2 | 8.0 | 0.00 | 0.00 | 0.00 | 71 | 1011.1 |
| 20260507021548 | 23 | 132 | 1.6 | 6.4 | 0.00 | 0.00 | 0.00 | 71 | 1010.9 |
| 20260507020052 | 23 | 117 | 3.2 | 11.3 | 0.00 | 0.00 | 0.00 | 71 | 1010.9 |
| 20260507014545 | 23 | 140 | 1.6 | 9.7 | 0.00 | 0.00 | 0.00 | 71 | 1011.2 |
| 20260507013047 | 22 | 111 | 3.2 | 9.7 | 0.00 | 0.00 | 0.00 | 71 | 1011.0 |
| 20260507011546 | 23 | 98 | 3.2 | 9.7 | 0.00 | 0.00 | 0.00 | 71 | 1011.0 |
| 20260507010104 | 23 | 0 | 0.0 | 3.2 | 0.00 | 0.00 | 0.00 | 70 | 1011.0 |
| 20260507004544 | 23 | 161 | 0.0 | 6.4 | 0.00 | 0.00 | 0.00 | 70 | 1011.1 |
| 20260507003043 | 23 | 173 | 0.0 | 6.4 | 0.00 | 0.00 | 0.00 | 69 | 1010.8 |
| 20260507001551 | 23 | 198 | 0.0 | 6.4 | 0.00 | 0.00 | 0.00 | 68 | 1010.7 |
| 20260507000048 | 24 | 0 | 1.6 | 6.4 | 0.00 | 0.00 | 0.00 | 68 | 1010.3 |
| 20260506234545 | 24 | 185 | 1.6 | 8.0 | 0.00 | 0.00 | 0.00 | 67 | 1010.5 |
| 20260506233057 | 25 | 184 | 3.2 | 8.0 | 0.00 | 0.00 | 0.00 | 67 | 1010.1 |
| 20260506231541 | 25 | 159 | 1.6 | 8.0 | 0.00 | 0.00 | 0.00 | 66 | 1010.2 |
| 20260506230045 | 25 | 207 | 1.6 | 4.8 | 0.00 | 0.00 | 0.00 | 65 | 1009.9 |
| 20260506224549 | 25 | 194 | 3.2 | 14.5 | 0.00 | 0.00 | 0.00 | 64 | 1010.1 |
| 20260506223045 | 25 | 196 | 1.6 | 19.3 | 0.00 | 0.00 | 0.00 | 64 | 1010.0 |
| 20260506221547 | 25 | 164 | 4.8 | 14.5 | 0.00 | 0.00 | 0.00 | 64 | 1010.0 |
| 20260506220049 | 25 | 155 | 6.4 | 16.1 | 0.00 | 0.00 | 0.00 | 64 | 1010.1 |
| 20260506214540 | 25 | 138 | 4.8 | 16.1 | 0.00 | 0.00 | 0.00 | 64 | 1010.0 |
| 20260506213046 | 26 | 221 | 3.2 | 25.7 | 0.00 | 0.00 | 0.00 | 63 | 1009.8 |
| 20260506211551 | 26 | 76 | 11.3 | 24.1 | 0.00 | 0.00 | 0.00 | 62 | 1009.5 |
| 20260506210046 | 26 | 114 | 9.7 | 19.3 | 0.00 | 0.00 | 0.00 | 62 | 1010.1 |
| 20260506204546 | 25 | 219 | 6.4 | 22.5 | 0.00 | 0.00 | 0.00 | 62 | 1010.1 |
| 20260506203047 | 25 | 257 | 12.9 | 25.7 | 0.00 | 0.00 | 0.00 | 62 | 1010.4 |
| 20260506201547 | 25 | 157 | 11.3 | 27.4 | 0.00 | 0.00 | 0.00 | 62 | 1010.8 |
| 20260506200044 | 25 | 169 | 11.3 | 27.4 | 0.00 | 0.00 | 0.00 | 63 | 1010.9 |
| 20260506194544 | 25 | 167 | 11.3 | 32.2 | 0.00 | 0.00 | 0.00 | 65 | 1011.2 |
| 20260506193047 | 25 | 140 | 9.7 | 25.7 | 0.00 | 0.00 | 0.00 | 65 | 1011.4 |
| 20260506191548 | 25 | 205 | 11.3 | 24.1 | 0.00 | 0.00 | 0.00 | 65 | 1011.3 |
| 20260506190047 | 24 | 143 | 8.0 | 24.1 | 0.00 | 0.00 | 0.00 | 66 | 1011.4 |
| 20260506184552 | 24 | 211 | 11.3 | 29.0 | 0.00 | 0.00 | 0.00 | 66 | 1011.8 |
| 20260506183044 | 25 | 110 | 6.4 | 19.3 | 0.00 | 0.00 | 0.00 | 66 | 1011.7 |
| 20260506181544 | 24 | 246 | 12.9 | 32.2 | 0.00 | 0.00 | 0.00 | 66 | 1012.0 |